• Join FlightAware (Why Join?)
  • Login
  • US Flag 
05:54PM EDT


 

Airport Tracker/Info


-or-


 

Live Flight TrackerFlight Track Log ✈ BOE5 ✈ 06-Jun-2013 ✈ KMWH - KBFI

Flight Track Log - Related Links

Times and Time Zones

All times are in EDT time to prevent confusion due to time zone crossing. See the BOE5 flight status page for this flight to view local times or setup timezone preferences in your user account.

Time Position Orientation Groundspeed Altitude Reporting Facility
EDT Latitude Longitude Course Direction KTS MPH feet Rate Location/Type
06:06PM 47.2661 -119.4567 297° West 228 262 6,700  Level Seattle Center
06:07PM 47.3033 -119.5636 297° West 270 311 9,700 2,340 Climbing Seattle Center
06:08PM 47.3381 -119.6667 296° West 290 334 11,500 2,040 Climbing Seattle Center
06:09PM 47.3744 -119.7714 297° West 286 329 13,900 2,160 Climbing Seattle Center
06:10PM 47.4122 -119.8806 297° West 297 342 15,900 1,020 Climbing Seattle Center
06:11PM 47.4531 -119.9989 297° West 302 348 16,000  Climbing Seattle Center
06:12PM 47.4981 -120.1336 296° West 372 428 16,000  Level Seattle Center
06:13PM 47.5464 -120.2778 296° West 391 450 16,000 -60 Level Seattle Center
06:14PM 47.5939 -120.4217 296° West 390 449 15,900 -60 Descending Seattle Center
06:15PM 47.6367 -120.5433 298° West 381 438 15,900  Level Seattle Center
06:16PM 47.6878 -120.6917 297° West 398 458 15,900  Level Seattle Center
06:17PM 47.7394 -120.8758 293° West 417 480 16,000  Climbing Seattle Center
06:18PM 47.7411 -121.0469 271° West 410 472 16,000  Level Seattle Center
06:19PM 47.7481 -121.2328 273° West 413 475 16,000 -720 Level Seattle Center
06:20PM 47.7536 -121.3503 274° West 410 472 14,800 -2,400 Descending Seattle Center
06:20PM 47.7544 -121.3964 272° West 389 448 13,600 -2,760 Descending Seattle Center
06:21PM 47.7564 -121.4978 272° West 348 400 12,000 -1,860 Descending Seattle Center
06:21PM 47.7583 -121.5378 274° West 333 383 11,700 -1,440 Descending Seattle Center
06:22PM 47.7622 -121.6400 273° West 277 319 10,400 -1,020 Descending Seattle Center
06:23PM 47.7647 -121.7444 272° West 274 315 10,000 -600 Descending Seattle Center
06:23PM 47.7611 -121.7789 261° West 280 322 9,700 -1,560 Descending Seattle Center
06:24PM 47.7181 -121.8236 215° Southwest 278 320 8,400 -1,920 Descending Seattle Center
06:24PM 47.6947 -121.8325 194° South 279 321 7,800 -1,500 Descending Seattle Center
06:25PM 47.6469 -121.8506 194° South 261 300 6,900 -1,320 Descending Seattle Center
06:25PM 47.6275 -121.8592 197° South 245 282 6,500 -1,620 Descending Seattle Center
06:26PM 47.5853 -121.8786 197° South 226 260 5,300 -1,500 Descending Seattle Center
06:26PM 47.5606 -121.8881 194° South 233 268 5,000 -300 Descending Seattle Center
06:27PM 47.5203 -121.9119 202° Southwest 225 259 5,000  Level Seattle Center
06:27PM 47.5039 -121.9269 212° Southwest 227 261 5,000 -540 Level Seattle Center
06:28PM 47.4689 -121.9636 215° Southwest 229 264 4,500 -780 Descending Seattle Center
06:28PM 47.4531 -121.9825 219° Southwest 227 261 4,200 -300 Descending Seattle Center
06:29PM 47.4172 -122.0219 217° Southwest 225 259 4,200  Level Seattle Center
06:29PM 47.4028 -122.0372 216° Southwest 225 259 4,200 -480 Level Seattle Center
06:30PM 47.3906 -122.1089 256° West 230 265 3,700 -840 Descending Seattle Center
06:31PM 47.4142 -122.1844 295° West 218 251 2,800 -1,020 Descending Seattle Center
06:31PM 47.4231 -122.2056 302° West 215 247 2,500 -780 Descending Seattle Center
06:32PM 47.4439 -122.2303 321° Northwest 139 160 2,000 -840 Descending Seattle Center
06:32PM 47.4542 -122.2406 326° Northwest 145 167 1,700 -1,020 Descending Seattle Center
06:33PM 47.4775 -122.2575 334° Northwest 131 151 1,000 -900 Descending Seattle Center
06:33PM 47.4869 -122.2672 325° Northwest 137 158 800 -720 Descending Seattle Center
06:34PM 47.5092 -122.2861 330° Northwest 135 155 300 -720 Descending Seattle Center
06:34PM 47.5192 -122.2933 334° Northwest 135 155 100 -720 Descending Seattle Center